Terminal Aerodrome Forecast
Issued by NWS

Home | Current Version | Previous Version | Text Only | Print | Product List | Glossary On
Versions: 1 2 3 4 5 6 7 8 9 10 11 12 13 14 15 16 17 18 19 20 21 22 23
000
FTAK31 PAFA 031735
TAFAFA
TAF
PAFA 031735Z 0318/0424 06005KT P6SM FEW080 BKN200
     FM032200 VRB04KT P6SM SCT050 SCT200
     FM040400 VRB03KT P6SM FEW050 SCT200
     FM041500 05005KT P6SM FEW200=

USA.gov is the U.S. government's official web portal to all federal, state and local government web resources and services.